Terminal Aerodrome Forecast
Issued by NWS Columbia, SC

Home | Current Version | Previous Version | Text Only | Print | Product List | Glossary On
Versions: 1 2 3 4 5 6 7 8 9 10 11 12 13 14 15 16 17 18 19 20 21 22 23 24 25 26 27 28 29 30 31 32 33 34 35 36 37 38 39 40 41
000
FTUS42 KCAE 250841 CCA
TAFCAE
TAF COR
KCAE 250841Z 2509/2606 23008KT P6SM SCT060 WS015/25025KT
      TEMPO 2509/2511 BKN006
     FM251500 26016G28KT P6SM BKN040
     FM260000 25010KT P6SM SKC WS010/26030KT=

USA.gov is the U.S. government's official web portal to all federal, state and local government web resources and services.